sensor_id;sensor_type;location;lat;lon;timestamp;pressure;altitude;pressure_sealevel;temperature
76713;BMP280;65640;43.154;25.658;2024-03-23T00:55:18;100863.47;;;1.70
76713;BMP280;65640;43.154;25.658;2024-03-23T00:57:44;100863.28;;;1.71
76713;BMP280;65640;43.154;25.658;2024-03-23T01:00:09;100864.88;;;1.72
76713;BMP280;65640;43.154;25.658;2024-03-23T01:02:36;100862.50;;;1.78
76713;BMP280;65640;43.154;25.658;2024-03-23T01:05:02;100858.50;;;1.68
76713;BMP280;65640;43.154;25.658;2024-03-23T01:07:27;100857.06;;;1.59
76713;BMP280;65640;43.154;25.658;2024-03-23T01:09:52;100854.47;;;1.53
76713;BMP280;65640;43.154;25.658;2024-03-23T01:12:18;100858.84;;;1.59
76713;BMP280;65640;43.154;25.658;2024-03-23T01:14:43;100849.31;;;1.59
76713;BMP280;65640;43.154;25.658;2024-03-23T01:17:09;100849.31;;;1.59
76713;BMP280;65640;43.154;25.658;2024-03-23T01:19:34;100848.53;;;1.59
76713;BMP280;65640;43.154;25.658;2024-03-23T01:22:00;100844.97;;;1.53
76713;BMP280;65640;43.154;25.658;2024-03-23T01:24:25;100836.22;;;1.54
76713;BMP280;65640;43.154;25.658;2024-03-23T01:26:50;100833.03;;;1.52
76713;BMP280;65640;43.154;25.658;2024-03-23T01:29:16;100837.59;;;1.50
76713;BMP280;65640;43.154;25.658;2024-03-23T01:31:41;100837.59;;;1.50
76713;BMP280;65640;43.154;25.658;2024-03-23T01:34:07;100837.19;;;1.47
76713;BMP280;65640;43.154;25.658;2024-03-23T01:36:32;100835.00;;;1.44
76713;BMP280;65640;43.154;25.658;2024-03-23T01:38:58;100833.78;;;1.39
76713;BMP280;65640;43.154;25.658;2024-03-23T01:41:24;100828.63;;;1.39
76713;BMP280;65640;43.154;25.658;2024-03-23T01:43:49;100834.97;;;1.30
76713;BMP280;65640;43.154;25.658;2024-03-23T01:46:15;100834.94;;;1.37
76713;BMP280;65640;43.154;25.658;2024-03-23T01:48:41;100830.78;;;1.36
76713;BMP280;65640;43.154;25.658;2024-03-23T01:51:07;100836.16;;;1.28
76713;BMP280;65640;43.154;25.658;2024-03-23T01:53:33;100833.41;;;1.43
76713;BMP280;65640;43.154;25.658;2024-03-23T01:55:58;100838.50;;;1.36
76713;BMP280;65640;43.154;25.658;2024-03-23T01:58:23;100833.78;;;1.33
76713;BMP280;65640;43.154;25.658;2024-03-23T02:00:49;100841.31;;;1.41
76713;BMP280;65640;43.154;25.658;2024-03-23T02:03:25;100840.91;;;1.37
76713;BMP280;65640;43.154;25.658;2024-03-23T02:05:51;100841.31;;;1.34
76713;BMP280;65640;43.154;25.658;2024-03-23T02:08:18;100840.94;;;1.31
76713;BMP280;65640;43.154;25.658;2024-03-23T02:10:44;100839.75;;;1.33
76713;BMP280;65640;43.154;25.658;2024-03-23T02:13:10;100840.94;;;1.31
76713;BMP280;65640;43.154;25.658;2024-03-23T02:15:35;100837.28;;;1.19
76713;BMP280;65640;43.154;25.658;2024-03-23T02:18:01;100844.41;;;1.17
76713;BMP280;65640;43.154;25.658;2024-03-23T02:20:26;100831.31;;;1.18
76713;BMP280;65640;43.154;25.658;2024-03-23T02:22:53;100839.31;;;1.36
76713;BMP280;65640;43.154;25.658;2024-03-23T02:25:18;100845.31;;;1.44
76713;BMP280;65640;43.154;25.658;2024-03-23T02:27:44;100841.63;;;1.18
76713;BMP280;65640;43.154;25.658;2024-03-23T02:30:09;100842.22;;;1.14
76713;BMP280;65640;43.154;25.658;2024-03-23T02:32:35;100841.44;;;1.20
76713;BMP280;65640;43.154;25.658;2024-03-23T02:35:01;100841.63;;;1.12
76713;BMP280;65640;43.154;25.658;2024-03-23T02:37:26;100838.81;;;1.07
76713;BMP280;65640;43.154;25.658;2024-03-23T02:39:51;100837.84;;;1.08
76713;BMP280;65640;43.154;25.658;2024-03-23T02:42:17;100845.38;;;1.09
76713;BMP280;65640;43.154;25.658;2024-03-23T02:44:44;100839.09;;;1.25
76713;BMP280;65640;43.154;25.658;2024-03-23T02:47:09;100841.22;;;1.15
76713;BMP280;65640;43.154;25.658;2024-03-23T02:49:35;100841.31;;;0.93
76713;BMP280;65640;43.154;25.658;2024-03-23T02:52:00;100840.97;;;1.03
76713;BMP280;65640;43.154;25.658;2024-03-23T02:54:25;100845.47;;;0.94
76713;BMP280;65640;43.154;25.658;2024-03-23T02:56:51;100838.69;;;0.87
76713;BMP280;65640;43.154;25.658;2024-03-23T02:59:16;100832.94;;;0.85
76713;BMP280;65640;43.154;25.658;2024-03-23T03:01:41;100831.91;;;0.79
76713;BMP280;65640;43.154;25.658;2024-03-23T03:04:07;100838.41;;;0.75
76713;BMP280;65640;43.154;25.658;2024-03-23T03:06:33;100834.25;;;0.74
76713;BMP280;65640;43.154;25.658;2024-03-23T03:08:58;100831.44;;;0.69
76713;BMP280;65640;43.154;25.658;2024-03-23T03:11:24;100825.09;;;0.65
76713;BMP280;65640;43.154;25.658;2024-03-23T03:13:49;100826.69;;;0.66
76713;BMP280;65640;43.154;25.658;2024-03-23T03:16:15;100824.31;;;0.71
76713;BMP280;65640;43.154;25.658;2024-03-23T03:18:40;100830.00;;;0.88
76713;BMP280;65640;43.154;25.658;2024-03-23T03:21:06;100821.66;;;0.86
76713;BMP280;65640;43.154;25.658;2024-03-23T03:23:39;100827.13;;;0.76
76713;BMP280;65640;43.154;25.658;2024-03-23T03:26:05;100829.47;;;0.71
76713;BMP280;65640;43.154;25.658;2024-03-23T03:28:34;100825.91;;;0.72
76713;BMP280;65640;43.154;25.658;2024-03-23T03:31:00;100826.69;;;0.66
76713;BMP280;65640;43.154;25.658;2024-03-23T03:33:28;100830.50;;;0.49
76713;BMP280;65640;43.154;25.658;2024-03-23T03:35:54;100824.41;;;0.56
76713;BMP280;65640;43.154;25.658;2024-03-23T03:38:20;100828.97;;;0.54
76713;BMP280;65640;43.154;25.658;2024-03-23T03:40:46;100832.16;;;0.35
76713;BMP280;65640;43.154;25.658;2024-03-23T03:43:11;100826.00;;;0.29
76713;BMP280;65640;43.154;25.658;2024-03-23T03:45:37;100836.31;;;0.29
76713;BMP280;65640;43.154;25.658;2024-03-23T03:48:02;100830.19;;;0.30
76713;BMP280;65640;43.154;25.658;2024-03-23T03:50:28;100830.41;;;0.35
76713;BMP280;65640;43.154;25.658;2024-03-23T03:52:53;100831.34;;;0.56
76713;BMP280;65640;43.154;25.658;2024-03-23T03:55:18;100832.38;;;0.61
76713;BMP280;65640;43.154;25.658;2024-03-23T03:57:44;100830.44;;;0.70
76713;BMP280;65640;43.154;25.658;2024-03-23T04:00:10;100830.31;;;0.50
76713;BMP280;65640;43.154;25.658;2024-03-23T04:02:37;100830.63;;;0.41
76713;BMP280;65640;43.154;25.658;2024-03-23T04:05:03;100829.22;;;0.38
76713;BMP280;65640;43.154;25.658;2024-03-23T04:07:29;100824.50;;;0.42
76713;BMP280;65640;43.154;25.658;2024-03-23T04:09:54;100830.91;;;0.52
76713;BMP280;65640;43.154;25.658;2024-03-23T04:12:20;100824.25;;;0.37
76713;BMP280;65640;43.154;25.658;2024-03-23T04:14:45;100830.13;;;0.24
76713;BMP280;65640;43.154;25.658;2024-03-23T04:17:11;100826.22;;;0.34
76713;BMP280;65640;43.154;25.658;2024-03-23T04:19:36;100826.03;;;0.36
76713;BMP280;65640;43.154;25.658;2024-03-23T04:22:02;100827.03;;;0.35
76713;BMP280;65640;43.154;25.658;2024-03-23T04:24:28;100831.25;;;0.43
76713;BMP280;65640;43.154;25.658;2024-03-23T04:26:54;100826.09;;;0.43
76713;BMP280;65640;43.154;25.658;2024-03-23T04:29:19;100824.09;;;0.38
76713;BMP280;65640;43.154;25.658;2024-03-23T04:31:44;100825.25;;;0.35
76713;BMP280;65640;43.154;25.658;2024-03-23T04:34:10;100828.06;;;0.41
76713;BMP280;65640;43.154;25.658;2024-03-23T04:36:35;100817.78;;;0.41
76713;BMP280;65640;43.154;25.658;2024-03-23T04:39:01;100827.53;;;0.52
76713;BMP280;65640;43.154;25.658;2024-03-23T04:41:26;100828.53;;;0.51
76713;BMP280;65640;43.154;25.658;2024-03-23T04:43:52;100833.06;;;0.49
76713;BMP280;65640;43.154;25.658;2024-03-23T04:46:17;100830.22;;;0.65
76713;BMP280;65640;43.154;25.658;2024-03-23T04:48:43;100831.53;;;0.82
76713;BMP280;65640;43.154;25.658;2024-03-23T04:51:10;100831.97;;;0.92
76713;BMP280;65640;43.154;25.658;2024-03-23T04:53:38;100835.78;;;0.96
76713;BMP280;65640;43.154;25.658;2024-03-23T04:56:03;100836.00;;;1.01
76713;BMP280;65640;43.154;25.658;2024-03-23T04:58:29;100835.06;;;1.09
76713;BMP280;65640;43.154;25.658;2024-03-23T05:00:58;100833.34;;;1.23
76713;BMP280;65640;43.154;25.658;2024-03-23T05:03:23;100833.78;;;1.33
76713;BMP280;65640;43.154;25.658;2024-03-23T05:05:49;100842.53;;;1.45
76713;BMP280;65640;43.154;25.658;2024-03-23T05:08:15;100836.84;;;1.56
76713;BMP280;65640;43.154;25.658;2024-03-23T05:10:41;100841.44;;;1.67
76713;BMP280;65640;43.154;25.658;2024-03-23T05:13:07;100844.06;;;1.81
76713;BMP280;65640;43.154;25.658;2024-03-23T05:15:32;100841.44;;;1.87
76713;BMP280;65640;43.154;25.658;2024-03-23T05:17:58;100835.94;;;2.10
76713;BMP280;65640;43.154;25.658;2024-03-23T05:20:23;100844.31;;;2.25
76713;BMP280;65640;43.154;25.658;2024-03-23T05:22:49;100834.16;;;2.43
76713;BMP280;65640;43.154;25.658;2024-03-23T05:25:14;100830.75;;;2.43
76713;BMP280;65640;43.154;25.658;2024-03-23T05:27:41;100832.34;;;2.57
76713;BMP280;65640;43.154;25.658;2024-03-23T05:30:07;100833.88;;;2.71
76713;BMP280;65640;43.154;25.658;2024-03-23T05:32:34;100828.72;;;2.85
76713;BMP280;65640;43.154;25.658;2024-03-23T05:34:59;100830.50;;;2.91
76713;BMP280;65640;43.154;25.658;2024-03-23T05:37:24;100821.88;;;3.03
76713;BMP280;65640;43.154;25.658;2024-03-23T05:39:51;100817.06;;;3.13
76713;BMP280;65640;43.154;25.658;2024-03-23T05:42:17;100824.94;;;3.32
76713;BMP280;65640;43.154;25.658;2024-03-23T05:44:45;100817.66;;;3.53
76713;BMP280;65640;43.154;25.658;2024-03-23T05:47:12;100821.94;;;3.66
76713;BMP280;65640;43.154;25.658;2024-03-23T05:49:42;100825.03;;;3.81
76713;BMP280;65640;43.154;25.658;2024-03-23T05:52:08;100819.09;;;4.06
76713;BMP280;65640;43.154;25.658;2024-03-23T05:54:34;100814.47;;;4.08
76713;BMP280;65640;43.154;25.658;2024-03-23T05:57:00;100815.94;;;4.22
76713;BMP280;65640;43.154;25.658;2024-03-23T05:59:26;100807.47;;;4.33
76713;BMP280;65640;43.154;25.658;2024-03-23T06:01:52;100808.84;;;4.54
76713;BMP280;65640;43.154;25.658;2024-03-23T06:04:17;100807.13;;;4.66
76713;BMP280;65640;43.154;25.658;2024-03-23T06:06:43;100812.09;;;4.86
76713;BMP280;65640;43.154;25.658;2024-03-23T06:09:08;100811.69;;;5.00
76713;BMP280;65640;43.154;25.658;2024-03-23T06:11:34;100804.53;;;5.14
76713;BMP280;65640;43.154;25.658;2024-03-23T06:13:59;100806.03;;;5.22
76713;BMP280;65640;43.154;25.658;2024-03-23T06:16:24;100802.75;;;5.26
76713;BMP280;65640;43.154;25.658;2024-03-23T06:18:50;100793.88;;;5.34
76713;BMP280;65640;43.154;25.658;2024-03-23T06:21:16;100798.00;;;5.42
76713;BMP280;65640;43.154;25.658;2024-03-23T06:23:42;100794.91;;;5.45
76713;BMP280;65640;43.154;25.658;2024-03-23T06:26:08;100792.31;;;5.45
76713;BMP280;65640;43.154;25.658;2024-03-23T06:28:35;100789.28;;;5.36
76713;BMP280;65640;43.154;25.658;2024-03-23T06:31:01;100789.13;;;5.43
76713;BMP280;65640;43.154;25.658;2024-03-23T06:33:26;100784.44;;;5.51
76713;BMP280;65640;43.154;25.658;2024-03-23T06:35:51;100791.31;;;5.46
76713;BMP280;65640;43.154;25.658;2024-03-23T06:38:17;100790.00;;;5.55
76713;BMP280;65640;43.154;25.658;2024-03-23T06:40:43;100787.41;;;5.90
76713;BMP280;65640;43.154;25.658;2024-03-23T06:43:13;100783.09;;;6.19
76713;BMP280;65640;43.154;25.658;2024-03-23T06:45:38;100780.97;;;6.27
76713;BMP280;65640;43.154;25.658;2024-03-23T06:48:04;100782.16;;;6.36
76713;BMP280;65640;43.154;25.658;2024-03-23T06:50:33;100780.06;;;6.62
76713;BMP280;65640;43.154;25.658;2024-03-23T06:52:58;100774.41;;;6.65
76713;BMP280;65640;43.154;25.658;2024-03-23T06:55:24;100779.19;;;6.84
76713;BMP280;65640;43.154;25.658;2024-03-23T06:57:52;100777.66;;;7.00
76713;BMP280;65640;43.154;25.658;2024-03-23T07:00:17;100768.69;;;7.24
76713;BMP280;65640;43.154;25.658;2024-03-23T07:02:43;100772.50;;;7.50
76713;BMP280;65640;43.154;25.658;2024-03-23T07:05:09;100767.06;;;7.90
76713;BMP280;65640;43.154;25.658;2024-03-23T07:07:36;100761.84;;;8.29
76713;BMP280;65640;43.154;25.658;2024-03-23T07:10:01;100763.06;;;8.70
76713;BMP280;65640;43.154;25.658;2024-03-23T07:12:26;100761.47;;;8.96
76713;BMP280;65640;43.154;25.658;2024-03-23T07:14:52;100755.03;;;9.08
76713;BMP280;65640;43.154;25.658;2024-03-23T07:17:17;100758.22;;;9.15
76713;BMP280;65640;43.154;25.658;2024-03-23T07:19:43;100754.41;;;9.28
76713;BMP280;65640;43.154;25.658;2024-03-23T07:22:09;100752.63;;;9.39
76713;BMP280;65640;43.154;25.658;2024-03-23T07:24:34;100752.19;;;9.52
76713;BMP280;65640;43.154;25.658;2024-03-23T07:26:59;100752.53;;;9.65
76713;BMP280;65640;43.154;25.658;2024-03-23T07:29:25;100743.19;;;9.80
76713;BMP280;65640;43.154;25.658;2024-03-23T07:31:50;100736.72;;;9.92
76713;BMP280;65640;43.154;25.658;2024-03-23T07:34:16;100737.81;;;10.06
76713;BMP280;65640;43.154;25.658;2024-03-23T07:36:41;100731.81;;;10.16
76713;BMP280;65640;43.154;25.658;2024-03-23T07:39:06;100719.03;;;10.40
76713;BMP280;65640;43.154;25.658;2024-03-23T07:41:33;100723.25;;;10.51
76713;BMP280;65640;43.154;25.658;2024-03-23T07:43:58;100720.91;;;10.70
76713;BMP280;65640;43.154;25.658;2024-03-23T07:46:24;100713.88;;;10.80
76713;BMP280;65640;43.154;25.658;2024-03-23T07:48:51;100707.53;;;10.92
76713;BMP280;65640;43.154;25.658;2024-03-23T07:51:18;100705.94;;;11.21
76713;BMP280;65640;43.154;25.658;2024-03-23T07:53:44;100706.16;;;11.45
76713;BMP280;65640;43.154;25.658;2024-03-23T07:56:11;100699.00;;;11.55
76713;BMP280;65640;43.154;25.658;2024-03-23T07:58:37;100699.47;;;11.73
76713;BMP280;65640;43.154;25.658;2024-03-23T08:01:07;100687.56;;;11.95
76713;BMP280;65640;43.154;25.658;2024-03-23T08:03:33;100687.84;;;12.28
76713;BMP280;65640;43.154;25.658;2024-03-23T08:06:27;100696.72;;;12.66
76713;BMP280;65640;43.154;25.658;2024-03-23T08:08:54;100692.19;;;13.00
76713;BMP280;65640;43.154;25.658;2024-03-23T08:11:28;100689.84;;;13.22
76713;BMP280;65640;43.154;25.658;2024-03-23T08:13:54;100683.84;;;13.40
76713;BMP280;65640;43.154;25.658;2024-03-23T08:16:20;100675.88;;;13.46
76713;BMP280;65640;43.154;25.658;2024-03-23T08:18:45;100677.69;;;13.50
76713;BMP280;65640;43.154;25.658;2024-03-23T08:21:11;100682.44;;;13.67
76713;BMP280;65640;43.154;25.658;2024-03-23T08:23:36;100671.22;;;13.80
76713;BMP280;65640;43.154;25.658;2024-03-23T08:26:07;100674.78;;;13.89
76713;BMP280;65640;43.154;25.658;2024-03-23T08:28:32;100661.56;;;13.94
76713;BMP280;65640;43.154;25.658;2024-03-23T08:31:01;100655.03;;;14.05
76713;BMP280;65640;43.154;25.658;2024-03-23T08:33:27;100656.97;;;14.32
76713;BMP280;65640;43.154;25.658;2024-03-23T08:35:57;100654.97;;;14.56
76713;BMP280;65640;43.154;25.658;2024-03-23T08:38:23;100653.41;;;14.69
76713;BMP280;65640;43.154;25.658;2024-03-23T08:40:59;100653.16;;;14.84
76713;BMP280;65640;43.154;25.658;2024-03-23T08:43:25;100650.00;;;14.82
76713;BMP280;65640;43.154;25.658;2024-03-23T08:45:51;100643.56;;;14.88
76713;BMP280;65640;43.154;25.658;2024-03-23T08:48:17;100643.25;;;15.03
76713;BMP280;65640;43.154;25.658;2024-03-23T08:50:43;100638.75;;;15.04
76713;BMP280;65640;43.154;25.658;2024-03-23T08:53:09;100637.06;;;15.22
76713;BMP280;65640;43.154;25.658;2024-03-23T08:55:34;100636.72;;;15.37
76713;BMP280;65640;43.154;25.658;2024-03-23T08:58:00;100636.59;;;15.55
76713;BMP280;65640;43.154;25.658;2024-03-23T09:00:26;100631.06;;;15.65
76713;BMP280;65640;43.154;25.658;2024-03-23T09:02:51;100631.13;;;15.96
76713;BMP280;65640;43.154;25.658;2024-03-23T09:05:17;100623.22;;;16.27
76713;BMP280;65640;43.154;25.658;2024-03-23T09:07:42;100622.56;;;16.61
76713;BMP280;65640;43.154;25.658;2024-03-23T09:10:07;100619.63;;;16.63
76713;BMP280;65640;43.154;25.658;2024-03-23T09:12:33;100615.41;;;16.62
76713;BMP280;65640;43.154;25.658;2024-03-23T09:14:58;100622.75;;;16.73
76713;BMP280;65640;43.154;25.658;2024-03-23T09:17:24;100616.38;;;16.74
76713;BMP280;65640;43.154;25.658;2024-03-23T09:19:49;100613.53;;;16.71
76713;BMP280;65640;43.154;25.658;2024-03-23T09:22:15;100606.75;;;16.87
76713;BMP280;65640;43.154;25.658;2024-03-23T09:24:40;100601.00;;;16.93
76713;BMP280;65640;43.154;25.658;2024-03-23T09:27:05;100601.94;;;17.15
76713;BMP280;65640;43.154;25.658;2024-03-23T09:29:31;100593.06;;;17.28
76713;BMP280;65640;43.154;25.658;2024-03-23T09:31:56;100590.72;;;17.52
76713;BMP280;65640;43.154;25.658;2024-03-23T09:34:22;100585.06;;;17.62
76713;BMP280;65640;43.154;25.658;2024-03-23T09:36:51;100576.59;;;17.86
76713;BMP280;65640;43.154;25.658;2024-03-23T09:39:17;100576.41;;;18.00
76713;BMP280;65640;43.154;25.658;2024-03-23T09:41:42;100578.34;;;18.20
76713;BMP280;65640;43.154;25.658;2024-03-23T09:44:08;100570.22;;;18.25
76713;BMP280;65640;43.154;25.658;2024-03-23T09:46:34;100572.88;;;18.25
76713;BMP280;65640;43.154;25.658;2024-03-23T09:49:02;100564.72;;;18.30
76713;BMP280;65640;43.154;25.658;2024-03-23T09:51:31;100559.53;;;18.33
76713;BMP280;65640;43.154;25.658;2024-03-23T09:53:57;100559.66;;;18.37
76713;BMP280;65640;43.154;25.658;2024-03-23T09:56:22;100551.09;;;18.40
76713;BMP280;65640;43.154;25.658;2024-03-23T09:58:49;100549.16;;;18.49
76713;BMP280;65640;43.154;25.658;2024-03-23T10:01:14;100544.41;;;18.63
76713;BMP280;65640;43.154;25.658;2024-03-23T10:03:46;100544.75;;;18.53
76713;BMP280;65640;43.154;25.658;2024-03-23T10:06:11;100535.00;;;18.45
76713;BMP280;65640;43.154;25.658;2024-03-23T10:08:36;100533.59;;;18.68
76713;BMP280;65640;43.154;25.658;2024-03-23T10:11:15;100525.50;;;18.85
76713;BMP280;65640;43.154;25.658;2024-03-23T10:13:44;100528.63;;;19.00
76713;BMP280;65640;43.154;25.658;2024-03-23T10:16:11;100516.69;;;19.06
76713;BMP280;65640;43.154;25.658;2024-03-23T10:18:38;100517.63;;;19.10
76713;BMP280;65640;43.154;25.658;2024-03-23T10:23:35;100512.13;;;19.27
76713;BMP280;65640;43.154;25.658;2024-03-23T10:26:24;100502.59;;;19.26
76713;BMP280;65640;43.154;25.658;2024-03-23T10:31:18;100490.84;;;19.15
76713;BMP280;65640;43.154;25.658;2024-03-23T10:33:47;100488.75;;;19.20
76713;BMP280;65640;43.154;25.658;2024-03-23T10:36:13;100483.91;;;19.22
76713;BMP280;65640;43.154;25.658;2024-03-23T10:38:40;100480.00;;;19.08
76713;BMP280;65640;43.154;25.658;2024-03-23T10:41:08;100481.25;;;19.22
76713;BMP280;65640;43.154;25.658;2024-03-23T10:43:34;100471.75;;;19.33
76713;BMP280;65640;43.154;25.658;2024-03-23T10:45:59;100470.53;;;19.31
76713;BMP280;65640;43.154;25.658;2024-03-23T10:48:25;100463.47;;;19.35
76713;BMP280;65640;43.154;25.658;2024-03-23T10:50:50;100454.25;;;19.32
76713;BMP280;65640;43.154;25.658;2024-03-23T10:53:17;100458.59;;;19.49
76713;BMP280;65640;43.154;25.658;2024-03-23T10:55:43;100454.47;;;19.64
76713;BMP280;65640;43.154;25.658;2024-03-23T10:58:10;100448.31;;;19.60
76713;BMP280;65640;43.154;25.658;2024-03-23T11:00:38;100436.91;;;19.59
76713;BMP280;65640;43.154;25.658;2024-03-23T11:03:30;100437.66;;;19.48
76713;BMP280;65640;43.154;25.658;2024-03-23T11:05:56;100426.94;;;19.44
76713;BMP280;65640;43.154;25.658;2024-03-23T11:11:12;100426.28;;;19.47
76713;BMP280;65640;43.154;25.658;2024-03-23T11:13:38;100427.81;;;19.48
76713;BMP280;65640;43.154;25.658;2024-03-23T11:16:17;100415.75;;;19.63
76713;BMP280;65640;43.154;25.658;2024-03-23T11:18:46;100409.09;;;19.81
76713;BMP280;65640;43.154;25.658;2024-03-23T11:24:15;100409.88;;;19.69
76713;BMP280;65640;43.154;25.658;2024-03-23T11:26:41;100404.34;;;19.62
76713;BMP280;65640;43.154;25.658;2024-03-23T11:29:14;100391.25;;;19.81
76713;BMP280;65640;43.154;25.658;2024-03-23T11:31:45;100392.44;;;19.96
76713;BMP280;65640;43.154;25.658;2024-03-23T11:34:10;100392.03;;;19.82
76713;BMP280;65640;43.154;25.658;2024-03-23T11:36:37;100374.03;;;19.75
76713;BMP280;65640;43.154;25.658;2024-03-23T11:39:19;100373.66;;;19.89
76713;BMP280;65640;43.154;25.658;2024-03-23T11:41:52;100372.78;;;20.13
76713;BMP280;65640;43.154;25.658;2024-03-23T11:44:19;100355.72;;;20.14
76713;BMP280;65640;43.154;25.658;2024-03-23T11:46:45;100365.69;;;20.32
76713;BMP280;65640;43.154;25.658;2024-03-23T11:49:27;100360.72;;;20.31
76713;BMP280;65640;43.154;25.658;2024-03-23T11:51:54;100362.66;;;20.46
76713;BMP280;65640;43.154;25.658;2024-03-23T11:54:20;100354.91;;;20.41
76713;BMP280;65640;43.154;25.658;2024-03-23T11:56:59;100346.97;;;20.29
76713;BMP280;65640;43.154;25.658;2024-03-23T11:59:38;100342.94;;;20.19
76713;BMP280;65640;43.154;25.658;2024-03-23T12:02:11;100343.16;;;20.26
76713;BMP280;65640;43.154;25.658;2024-03-23T12:04:40;100331.22;;;20.36
76713;BMP280;65640;43.154;25.658;2024-03-23T12:07:16;100325.72;;;20.29
76713;BMP280;65640;43.154;25.658;2024-03-23T12:09:45;100321.53;;;20.28
76713;BMP280;65640;43.154;25.658;2024-03-23T12:12:15;100324.78;;;20.21
76713;BMP280;65640;43.154;25.658;2024-03-23T12:14:45;100312.69;;;20.24
76713;BMP280;65640;43.154;25.658;2024-03-23T12:17:12;100308.41;;;20.35
76713;BMP280;65640;43.154;25.658;2024-03-23T12:19:38;100303.94;;;20.23
76713;BMP280;65640;43.154;25.658;2024-03-23T12:22:05;100293.63;;;20.53
76713;BMP280;65640;43.154;25.658;2024-03-23T12:24:32;100292.72;;;20.46
76713;BMP280;65640;43.154;25.658;2024-03-23T12:27:00;100286.59;;;20.29
76713;BMP280;65640;43.154;25.658;2024-03-23T12:29:28;100284.81;;;20.18
76713;BMP280;65640;43.154;25.658;2024-03-23T12:31:53;100275.03;;;20.37
76713;BMP280;65640;43.154;25.658;2024-03-23T12:34:18;100275.97;;;20.45
76713;BMP280;65640;43.154;25.658;2024-03-23T12:36:44;100274.19;;;20.49
76713;BMP280;65640;43.154;25.658;2024-03-23T12:39:09;100270.75;;;20.49
76713;BMP280;65640;43.154;25.658;2024-03-23T12:41:34;100270.31;;;20.62
76713;BMP280;65640;43.154;25.658;2024-03-23T12:44:00;100273.13;;;20.69
76713;BMP280;65640;43.154;25.658;2024-03-23T12:46:25;100260.69;;;20.58
76713;BMP280;65640;43.154;25.658;2024-03-23T12:48:50;100261.50;;;20.42
76713;BMP280;65640;43.154;25.658;2024-03-23T12:51:16;100261.19;;;20.32
76713;BMP280;65640;43.154;25.658;2024-03-23T12:53:41;100254.09;;;20.36
76713;BMP280;65640;43.154;25.658;2024-03-23T12:56:07;100257.53;;;20.36
76713;BMP280;65640;43.154;25.658;2024-03-23T12:58:32;100251.25;;;20.45
76713;BMP280;65640;43.154;25.658;2024-03-23T13:01:00;100249.81;;;20.47
76713;BMP280;65640;43.154;25.658;2024-03-23T13:03:26;100238.75;;;20.45
76713;BMP280;65640;43.154;25.658;2024-03-23T13:05:52;100241.34;;;20.26
76713;BMP280;65640;43.154;25.658;2024-03-23T13:08:17;100236.50;;;20.31
76713;BMP280;65640;43.154;25.658;2024-03-23T13:10:43;100235.88;;;20.54
76713;BMP280;65640;43.154;25.658;2024-03-23T13:13:10;100234.53;;;20.60
76713;BMP280;65640;43.154;25.658;2024-03-23T13:15:36;100226.19;;;20.61
76713;BMP280;65640;43.154;25.658;2024-03-23T13:18:02;100225.53;;;20.64
76713;BMP280;65640;43.154;25.658;2024-03-23T13:20:27;100221.97;;;20.76
76713;BMP280;65640;43.154;25.658;2024-03-23T13:22:53;100214.56;;;20.85
76713;BMP280;65640;43.154;25.658;2024-03-23T13:25:19;100215.22;;;20.63
76713;BMP280;65640;43.154;25.658;2024-03-23T13:27:44;100203.22;;;20.37
76713;BMP280;65640;43.154;25.658;2024-03-23T13:30:10;100203.84;;;20.31
76713;BMP280;65640;43.154;25.658;2024-03-23T13:32:35;100203.34;;;20.25
76713;BMP280;65640;43.154;25.658;2024-03-23T13:35:01;100199.63;;;20.30
76713;BMP280;65640;43.154;25.658;2024-03-23T13:37:26;100194.91;;;20.39
76713;BMP280;65640;43.154;25.658;2024-03-23T13:39:52;100194.75;;;20.48
76713;BMP280;65640;43.154;25.658;2024-03-23T13:42:17;100194.38;;;20.49
76713;BMP280;65640;43.154;25.658;2024-03-23T13:44:43;100185.78;;;20.56
76713;BMP280;65640;43.154;25.658;2024-03-23T13:47:08;100189.13;;;20.68
76713;BMP280;65640;43.154;25.658;2024-03-23T13:49:34;100176.28;;;20.74
76713;BMP280;65640;43.154;25.658;2024-03-23T13:52:00;100182.13;;;20.79
76713;BMP280;65640;43.154;25.658;2024-03-23T13:54:26;100167.97;;;20.75
76713;BMP280;65640;43.154;25.658;2024-03-23T13:56:52;100170.50;;;20.87
76713;BMP280;65640;43.154;25.658;2024-03-23T13:59:18;100171.22;;;20.84
76713;BMP280;65640;43.154;25.658;2024-03-23T14:01:44;100166.31;;;20.86
76713;BMP280;65640;43.154;25.658;2024-03-23T14:04:10;100165.25;;;20.91
76713;BMP280;65640;43.154;25.658;2024-03-23T14:06:36;100164.91;;;20.73
76713;BMP280;65640;43.154;25.658;2024-03-23T14:09:01;100161.81;;;20.71
76713;BMP280;65640;43.154;25.658;2024-03-23T14:11:29;100153.53;;;20.76
76713;BMP280;65640;43.154;25.658;2024-03-23T14:13:54;100152.59;;;20.84
76713;BMP280;65640;43.154;25.658;2024-03-23T14:16:20;100151.38;;;20.82
76713;BMP280;65640;43.154;25.658;2024-03-23T14:18:48;100151.28;;;20.78
76713;BMP280;65640;43.154;25.658;2024-03-23T14:21:13;100145.19;;;20.78
76713;BMP280;65640;43.154;25.658;2024-03-23T14:23:39;100144.22;;;20.67
76713;BMP280;65640;43.154;25.658;2024-03-23T14:26:06;100144.31;;;20.70
76713;BMP280;65640;43.154;25.658;2024-03-23T14:28:31;100143.44;;;20.66
76713;BMP280;65640;43.154;25.658;2024-03-23T14:30:57;100142.06;;;20.72
76713;BMP280;65640;43.154;25.658;2024-03-23T14:33:23;100141.50;;;20.63
76713;BMP280;65640;43.154;25.658;2024-03-23T14:35:55;100138.53;;;20.49
76713;BMP280;65640;43.154;25.658;2024-03-23T14:38:22;100137.00;;;20.48
76713;BMP280;65640;43.154;25.658;2024-03-23T14:40:47;100134.69;;;20.47
76713;BMP280;65640;43.154;25.658;2024-03-23T14:43:13;100133.13;;;20.46
76713;BMP280;65640;43.154;25.658;2024-03-23T14:46:07;100126.19;;;20.41
76713;BMP280;65640;43.154;25.658;2024-03-23T14:48:33;100123.97;;;20.43
76713;BMP280;65640;43.154;25.658;2024-03-23T14:50:59;100121.56;;;20.38